Brayton, Iowa
Current Conditions -  °F | °C
As of 4:15 PM on Sunday 23 Nov 2014 (Local Time) from KADU Reporting Station
Light Rain Light Rain  
Wind Chill: 32°   Ceiling: 5500
Heat Index: 41°   Visibility: 10mi
Dew Point: 36°   Wind: 18mph
Humidity: 81%   Direction: 320°NW
Pressure: 29.45"   Gusts: 26mph
Location:  41.54°N, 94.92°W
Report Text: KADU 232215Z AUTO 32016G23KT 10SM -RA SCT036 SCT048 BKN055 05/02 A2945 RMK AO2
Loading
Personal Weather Stations






























Interactive Weather Map New forecast layout! Learn more

10-Day Weather Forecast

Advertisements
Track Severe Weather on mobile